createdAt,value
2019-02-26T00:00:58.667Z,0.00
2019-02-26T00:03:28.641Z,-0.10
2019-02-26T00:05:59.501Z,-0.10
2019-02-26T00:08:29.641Z,-0.10
2019-02-26T00:11:01.255Z,-0.10
2019-02-26T00:13:31.776Z,-0.10
2019-02-26T00:16:05.613Z,-0.10
2019-02-26T00:18:31.864Z,-0.10
2019-02-26T00:21:02.763Z,-0.10
2019-02-26T00:23:31.552Z,-0.10
2019-02-26T00:26:00.412Z,-0.20
2019-02-26T00:28:29.442Z,-0.20
2019-02-26T00:30:59.530Z,-0.20
2019-02-26T00:33:29.179Z,-0.30
2019-02-26T00:35:57.988Z,-0.30
2019-02-26T00:38:27.042Z,-0.30
2019-02-26T00:40:57.763Z,-0.30
2019-02-26T00:43:27.999Z,-0.30
2019-02-26T00:45:58.315Z,-0.30
2019-02-26T00:48:31.425Z,-0.30
2019-02-26T00:51:00.687Z,-0.30
2019-02-26T00:53:30.739Z,-0.40
2019-02-26T00:56:01.058Z,-0.40
2019-02-26T00:58:32.074Z,-0.40
2019-02-26T01:01:01.669Z,-0.50
2019-02-26T01:03:30.454Z,-0.50
2019-02-26T01:06:01.483Z,-0.50
2019-02-26T01:08:29.834Z,-0.50
2019-02-26T01:10:59.250Z,-0.50
2019-02-26T01:13:30.091Z,-0.50
2019-02-26T01:16:00.149Z,-0.60
2019-02-26T01:18:29.526Z,-0.60
2019-02-26T01:21:00.282Z,-0.60
2019-02-26T01:23:29.074Z,-0.70
2019-02-26T01:25:58.316Z,-0.70
2019-02-26T01:28:29.210Z,-0.70
2019-02-26T01:31:00.145Z,-0.70
2019-02-26T01:33:30.247Z,-0.70
2019-02-26T01:36:00.198Z,-0.80
2019-02-26T01:38:30.157Z,-0.80
2019-02-26T01:40:59.016Z,-0.80
2019-02-26T01:43:27.785Z,-0.80
2019-02-26T01:45:56.801Z,-0.80
2019-02-26T01:48:25.581Z,-0.90
2019-02-26T01:50:56.831Z,-0.90
2019-02-26T01:53:27.233Z,-0.90
2019-02-26T01:55:55.632Z,-0.90
2019-02-26T01:58:24.463Z,-0.90
2019-02-26T02:00:55.573Z,-0.90
2019-02-26T02:03:25.512Z,-0.90
2019-02-26T02:05:55.104Z,-0.90
2019-02-26T02:08:24.901Z,-0.90
2019-02-26T02:10:56.538Z,-1.00
2019-02-26T02:13:28.310Z,-1.00
2019-02-26T02:15:57.598Z,-1.00
2019-02-26T02:18:28.126Z,-1.00
2019-02-26T02:20:57.124Z,-1.10
2019-02-26T02:23:28.013Z,-1.10
2019-02-26T02:25:59.796Z,-1.10
2019-02-26T02:28:28.583Z,-1.10
2019-02-26T02:30:58.489Z,-1.10
2019-02-26T02:33:30.021Z,-1.10
2019-02-26T02:35:58.028Z,-1.20
2019-02-26T02:38:26.825Z,-1.20
2019-02-26T02:40:55.678Z,-1.10
2019-02-26T02:43:24.806Z,-1.00
2019-02-26T02:45:55.751Z,-1.00
2019-02-26T02:48:24.123Z,-1.10
2019-02-26T02:50:53.232Z,-1.20
2019-02-26T02:53:23.955Z,-1.20
2019-02-26T02:55:52.600Z,-1.30
2019-02-26T02:58:23.921Z,-1.30
2019-02-26T03:00:54.073Z,-1.40
2019-02-26T03:03:22.533Z,-1.40
2019-02-26T03:05:51.360Z,-1.40
2019-02-26T03:08:22.319Z,-1.40
2019-02-26T03:10:52.012Z,-1.40
2019-02-26T03:13:23.007Z,-1.40
2019-02-26T03:15:53.459Z,-1.40
2019-02-26T03:18:22.479Z,-1.40
2019-02-26T03:20:53.719Z,-1.40
2019-02-26T03:23:21.787Z,-1.40
2019-02-26T03:25:52.902Z,-1.40
2019-02-26T03:28:21.197Z,-1.50
2019-02-26T03:30:50.336Z,-1.50
2019-02-26T03:33:19.118Z,-1.50
2019-02-26T03:35:47.927Z,-1.50
2019-02-26T03:38:18.195Z,-1.60
2019-02-26T03:40:49.253Z,-1.60
2019-02-26T03:43:18.330Z,-1.60
2019-02-26T03:45:48.038Z,-1.70
2019-02-26T03:48:20.120Z,-1.70
2019-02-26T03:50:47.482Z,-1.70
2019-02-26T03:53:16.267Z,-1.70
2019-02-26T03:55:45.137Z,-1.70
2019-02-26T03:58:14.061Z,-1.70
2019-02-26T04:00:43.926Z,-1.70
2019-02-26T04:03:15.141Z,-1.70
2019-02-26T04:05:44.623Z,-1.70
2019-02-26T04:08:13.732Z,-1.70
2019-02-26T04:10:42.585Z,-1.70
2019-02-26T04:13:12.720Z,-1.70
2019-02-26T04:15:41.888Z,-1.70
2019-02-26T04:18:10.661Z,-1.70
2019-02-26T04:20:43.551Z,-1.70
2019-02-26T04:23:12.786Z,-1.70
2019-02-26T04:26:10.012Z,-1.70
2019-02-26T04:29:01.365Z,-1.70
2019-02-26T04:31:49.303Z,-1.70
2019-02-26T04:34:54.138Z,-1.80
2019-02-26T04:38:04.100Z,-1.80
2019-02-26T04:40:42.100Z,-1.80
2019-02-26T04:43:36.027Z,-1.90
2019-02-26T04:46:20.060Z,-1.90
2019-02-26T04:48:48.986Z,-1.90
2019-02-26T04:51:18.162Z,-1.90
2019-02-26T04:53:49.191Z,-1.90
2019-02-26T04:56:17.636Z,-1.90
2019-02-26T04:58:47.799Z,-1.90
2019-02-26T05:01:19.022Z,-2.00
2019-02-26T05:03:47.316Z,-2.00
2019-02-26T05:06:16.449Z,-2.00
2019-02-26T05:08:45.846Z,-2.10
2019-02-26T05:11:17.432Z,-2.10
2019-02-26T05:13:45.248Z,-2.10
2019-02-26T05:16:14.057Z,-2.10
2019-02-26T05:18:44.438Z,-2.10
2019-02-26T05:21:13.368Z,-2.20
2019-02-26T05:23:42.633Z,-2.20
2019-02-26T05:26:15.077Z,-2.20
2019-02-26T05:28:44.242Z,-2.30
2019-02-26T05:31:15.152Z,-2.30
2019-02-26T05:33:43.664Z,-2.30
2019-02-26T05:36:14.922Z,-2.30
2019-02-26T05:38:45.142Z,-2.30
2019-02-26T05:41:16.782Z,-2.30
2019-02-26T05:43:49.437Z,-2.30
2019-02-26T05:46:18.881Z,-2.30
2019-02-26T05:48:48.545Z,-2.40
2019-02-26T05:51:17.421Z,-2.40
2019-02-26T05:53:46.363Z,-2.30
2019-02-26T05:56:17.158Z,-2.30
2019-02-26T05:58:46.976Z,-2.30
2019-02-26T06:01:18.971Z,-2.30
2019-02-26T06:04:10.085Z,-2.30
2019-02-26T06:06:39.897Z,-2.30
2019-02-26T06:09:09.374Z,-2.30
2019-02-26T06:11:39.959Z,-2.30
2019-02-26T06:14:12.080Z,-2.30
2019-02-26T06:16:39.437Z,-2.30
2019-02-26T06:19:11.088Z,-2.20
2019-02-26T06:21:43.941Z,-2.20
2019-02-26T06:24:11.512Z,-2.20
2019-02-26T06:26:41.329Z,-2.20
2019-02-26T06:29:10.836Z,-2.20
2019-02-26T06:31:42.277Z,-2.10
2019-02-26T06:34:11.898Z,-2.10
2019-02-26T06:36:41.994Z,-2.00
2019-02-26T06:39:11.431Z,-1.90
2019-02-26T06:41:41.919Z,-1.90
2019-02-26T06:44:10.798Z,-1.80
2019-02-26T06:46:39.756Z,-1.60
2019-02-26T06:49:08.665Z,-1.50
2019-02-26T06:51:37.473Z,-1.40
2019-02-26T06:54:06.655Z,-1.30
2019-02-26T06:56:41.237Z,-1.20
2019-02-26T06:59:11.713Z,-1.10
2019-02-26T07:01:42.026Z,-0.90
2019-02-26T07:04:12.878Z,-0.90
2019-02-26T07:06:41.960Z,-0.70
2019-02-26T07:09:11.536Z,-0.70
2019-02-26T07:11:42.010Z,-0.60
2019-02-26T07:14:11.401Z,-0.50
2019-02-26T07:16:40.512Z,-0.50
2019-02-26T07:19:12.260Z,-0.40
2019-02-26T07:21:42.888Z,-0.30
2019-02-26T07:24:11.548Z,-0.20
2019-02-26T07:26:41.717Z,-0.10
2019-02-26T07:29:13.191Z,0.00
2019-02-26T07:31:41.604Z,0.10
2019-02-26T07:34:10.520Z,0.20
2019-02-26T07:36:41.152Z,0.20
2019-02-26T07:39:13.070Z,0.30
2019-02-26T07:41:42.288Z,0.40
2019-02-26T07:44:15.511Z,0.50
2019-02-26T07:46:43.201Z,0.70
2019-02-26T07:49:12.902Z,0.70
2019-02-26T07:51:43.042Z,0.90
2019-02-26T07:54:11.960Z,1.10
2019-02-26T07:56:40.806Z,1.30
2019-02-26T07:59:10.642Z,1.70
2019-02-26T08:01:42.266Z,2.00
2019-02-26T08:04:11.617Z,2.30
2019-02-26T08:06:41.336Z,2.50
2019-02-26T08:09:13.501Z,2.70
2019-02-26T08:11:43.822Z,2.80
2019-02-26T08:14:13.759Z,3.00
2019-02-26T08:16:42.506Z,3.20
2019-02-26T08:19:11.556Z,3.50
2019-02-26T08:21:40.598Z,3.80
2019-02-26T08:24:10.631Z,4.10
2019-02-26T08:26:41.079Z,4.30
2019-02-26T08:29:12.451Z,4.60
2019-02-26T08:31:44.636Z,4.90
2019-02-26T08:34:13.489Z,5.00
2019-02-26T08:36:46.218Z,5.30
2019-02-26T08:39:15.606Z,5.50
2019-02-26T08:42:04.987Z,5.90
2019-02-26T08:44:36.970Z,6.10
2019-02-26T08:47:08.785Z,6.40
2019-02-26T08:49:38.360Z,6.70
2019-02-26T08:52:07.431Z,7.00
2019-02-26T08:54:36.246Z,7.30
2019-02-26T08:57:05.494Z,7.60
2019-02-26T08:59:34.266Z,7.90
2019-02-26T09:02:03.056Z,8.10
2019-02-26T09:04:31.825Z,8.30
2019-02-26T09:07:02.134Z,8.60
2019-02-26T09:09:32.820Z,8.80
2019-02-26T09:12:03.229Z,9.00
2019-02-26T09:14:35.004Z,9.20
2019-02-26T09:17:04.475Z,9.40
2019-02-26T09:19:35.433Z,9.70
2019-02-26T09:22:09.678Z,9.90
2019-02-26T09:24:36.100Z,10.10
2019-02-26T09:27:05.158Z,10.30
2019-02-26T09:29:36.744Z,10.40
2019-02-26T09:32:06.806Z,10.50
2019-02-26T09:34:39.327Z,10.80
2019-02-26T09:37:07.981Z,11.00
2019-02-26T09:39:38.940Z,11.10
2019-02-26T09:42:09.127Z,11.30
2019-02-26T09:44:37.842Z,11.40
2019-02-26T09:47:07.576Z,11.70
2019-02-26T09:49:36.523Z,11.70
2019-02-26T09:52:06.471Z,11.90
2019-02-26T09:54:40.323Z,12.10
2019-02-26T09:57:06.586Z,12.30
2019-02-26T09:59:35.939Z,12.50
2019-02-26T10:02:06.142Z,12.80
2019-02-26T10:04:34.994Z,13.00
2019-02-26T10:07:04.304Z,13.30
2019-02-26T10:09:36.790Z,13.60
2019-02-26T10:12:07.500Z,13.80
2019-02-26T10:14:38.369Z,13.90
2019-02-26T10:17:06.376Z,14.20
2019-02-26T10:19:35.715Z,14.40
2019-02-26T10:22:09.605Z,14.70
2019-02-26T10:24:38.003Z,15.00
2019-02-26T10:27:09.373Z,15.30
2019-02-26T10:29:39.876Z,15.50
2019-02-26T10:32:11.257Z,15.60
2019-02-26T10:34:39.222Z,15.80
2019-02-26T10:37:08.100Z,16.00
2019-02-26T10:39:37.048Z,16.10
2019-02-26T10:42:05.985Z,16.20
2019-02-26T10:44:35.129Z,16.20
2019-02-26T10:47:05.774Z,16.30
2019-02-26T10:49:34.591Z,16.50
2019-02-26T10:52:03.393Z,16.70
2019-02-26T10:54:39.494Z,17.00
2019-02-26T10:57:04.560Z,17.20
2019-02-26T10:59:33.506Z,17.30
2019-02-26T11:02:03.214Z,17.40
2019-02-26T11:04:35.556Z,17.70
2019-02-26T11:07:04.917Z,17.80
2019-02-26T11:09:33.632Z,17.80
2019-02-26T11:12:03.761Z,18.10
2019-02-26T11:14:36.041Z,18.40
2019-02-26T11:17:03.966Z,18.70
2019-02-26T11:19:35.787Z,18.90
2019-02-26T11:22:04.357Z,19.10
2019-02-26T11:24:33.599Z,19.30
2019-02-26T11:27:03.923Z,19.40
2019-02-26T11:29:34.078Z,19.50
2019-02-26T11:32:04.519Z,19.60
2019-02-26T11:34:35.839Z,19.80
2019-02-26T11:37:08.670Z,20.00
2019-02-26T11:39:35.319Z,20.30
2019-02-26T11:42:04.470Z,20.40
2019-02-26T11:44:33.270Z,20.90
2019-02-26T11:47:02.181Z,21.20
2019-02-26T11:49:31.189Z,21.50
2019-02-26T11:52:01.657Z,21.80
2019-02-26T11:54:34.067Z,22.20
2019-02-26T11:57:01.615Z,22.50
2019-02-26T11:59:33.043Z,22.40
2019-02-26T12:02:03.852Z,22.60
2019-02-26T12:04:31.989Z,22.70
2019-02-26T12:07:03.901Z,22.60
2019-02-26T12:09:32.951Z,22.70
2019-02-26T12:12:03.492Z,23.00
2019-02-26T12:14:34.748Z,23.40
2019-02-26T12:17:04.057Z,23.70
2019-02-26T12:19:34.501Z,23.70
2019-02-26T12:22:06.040Z,23.60
2019-02-26T12:24:36.135Z,24.00
2019-02-26T12:27:07.091Z,24.10
2019-02-26T12:29:35.660Z,24.10
2019-02-26T12:32:04.926Z,24.10
2019-02-26T12:34:35.188Z,24.30
2019-02-26T12:37:06.691Z,24.40
2019-02-26T12:39:35.702Z,24.50
2019-02-26T12:42:07.078Z,24.60
2019-02-26T12:44:39.483Z,24.30
2019-02-26T12:47:06.165Z,24.10
2019-02-26T12:49:36.529Z,23.90
2019-02-26T12:52:05.888Z,24.00
2019-02-26T12:54:37.748Z,24.00
2019-02-26T12:57:05.197Z,24.00
2019-02-26T12:59:34.005Z,24.00
2019-02-26T13:02:05.664Z,23.80
2019-02-26T13:04:33.616Z,23.60
2019-02-26T13:07:05.559Z,23.60
2019-02-26T13:09:33.990Z,23.50
2019-02-26T13:12:02.957Z,23.40
2019-02-26T13:14:31.887Z,23.50
2019-02-26T13:17:00.678Z,23.60
2019-02-26T13:19:32.815Z,23.70
2019-02-26T13:22:05.463Z,23.60
2019-02-26T13:24:30.765Z,23.50
2019-02-26T13:26:59.939Z,23.40
2019-02-26T13:29:29.177Z,23.30
2019-02-26T13:31:59.921Z,23.30
2019-02-26T13:34:28.481Z,23.10
2019-02-26T13:36:57.318Z,23.10
2019-02-26T13:39:33.009Z,22.90
2019-02-26T13:42:03.707Z,22.80
2019-02-26T13:44:27.721Z,22.70
2019-02-26T13:46:56.505Z,22.30
2019-02-26T13:49:25.461Z,22.00
2019-02-26T13:51:54.309Z,21.80
2019-02-26T13:54:23.094Z,21.70
2019-02-26T13:56:51.873Z,21.50
2019-02-26T13:59:20.662Z,21.40
2019-02-26T14:01:49.596Z,21.20
2019-02-26T14:04:19.235Z,21.10
2019-02-26T14:06:48.428Z,20.90
2019-02-26T14:09:17.313Z,20.90
2019-02-26T14:11:46.115Z,20.70
2019-02-26T14:14:14.969Z,20.60
2019-02-26T14:16:44.050Z,20.40
2019-02-26T14:19:13.055Z,20.30
2019-02-26T14:21:41.846Z,20.10
2019-02-26T14:24:11.029Z,20.00
2019-02-26T14:26:40.242Z,19.90
2019-02-26T14:29:09.352Z,19.80
2019-02-26T14:31:38.399Z,19.60
2019-02-26T14:34:07.216Z,19.60
2019-02-26T14:36:36.096Z,19.60
2019-02-26T14:39:06.121Z,19.60
2019-02-26T14:41:35.041Z,19.60
2019-02-26T14:44:03.908Z,19.50
2019-02-26T14:46:32.976Z,19.30
2019-02-26T14:49:02.676Z,19.30
2019-02-26T14:51:31.707Z,19.20
2019-02-26T14:54:00.496Z,19.20
2019-02-26T14:56:29.306Z,19.10
2019-02-26T14:58:58.170Z,19.10
2019-02-26T15:01:27.031Z,19.10
2019-02-26T15:03:56.111Z,19.10
2019-02-26T15:06:24.906Z,19.00
2019-02-26T15:08:53.799Z,18.90
2019-02-26T15:11:22.944Z,18.90
2019-02-26T15:13:51.757Z,18.90
2019-02-26T15:16:20.785Z,18.90
2019-02-26T15:18:49.732Z,18.90
2019-02-26T15:21:19.037Z,18.80
2019-02-26T15:23:47.837Z,18.80
2019-02-26T15:26:16.733Z,18.80
2019-02-26T15:28:45.589Z,18.70
2019-02-26T15:31:14.584Z,18.50
2019-02-26T15:33:43.367Z,18.30
2019-02-26T15:36:12.264Z,18.10
2019-02-26T15:38:41.054Z,17.90
2019-02-26T15:41:10.668Z,17.80
2019-02-26T15:43:39.619Z,17.60
2019-02-26T15:46:08.801Z,17.40
2019-02-26T15:48:37.945Z,17.10
2019-02-26T15:51:14.142Z,16.80
2019-02-26T15:53:37.409Z,16.60
2019-02-26T15:56:06.267Z,16.30
2019-02-26T15:58:35.070Z,16.00
2019-02-26T16:01:04.997Z,15.90
2019-02-26T16:03:34.080Z,15.70
2019-02-26T16:06:02.845Z,15.60
2019-02-26T16:08:34.581Z,15.40
2019-02-26T16:11:02.905Z,15.30
2019-02-26T16:13:31.685Z,15.20
2019-02-26T16:16:00.992Z,15.00
2019-02-26T16:22:12.270Z,14.70
2019-02-26T16:24:41.341Z,14.60
2019-02-26T16:27:10.279Z,14.50
2019-02-26T16:29:39.331Z,14.30
2019-02-26T16:32:08.369Z,14.20
2019-02-26T16:34:37.416Z,14.00
2019-02-26T16:37:07.857Z,13.80
2019-02-26T16:39:37.170Z,13.70
2019-02-26T16:42:05.994Z,13.60
2019-02-26T16:44:35.152Z,13.40
2019-02-26T16:47:05.304Z,13.30
2019-02-26T16:49:34.518Z,13.20
2019-02-26T16:52:03.335Z,13.00
2019-02-26T16:54:32.196Z,13.00
2019-02-26T16:57:01.226Z,12.80
2019-02-26T16:59:30.281Z,12.70
2019-02-26T17:01:59.084Z,12.60
2019-02-26T17:04:28.274Z,12.50
2019-02-26T17:06:57.481Z,12.30
2019-02-26T17:09:26.410Z,12.20
2019-02-26T17:11:55.280Z,12.10
2019-02-26T17:14:25.290Z,12.10
2019-02-26T17:16:54.081Z,11.90
2019-02-26T17:19:23.126Z,11.80
2019-02-26T17:21:52.232Z,11.60
2019-02-26T17:24:21.388Z,11.50
2019-02-26T17:26:50.714Z,11.30
2019-02-26T17:29:19.841Z,11.00
2019-02-26T17:31:48.800Z,10.80
2019-02-26T17:34:17.730Z,10.60
2019-02-26T17:36:48.283Z,10.50
2019-02-26T17:39:17.136Z,10.40
2019-02-26T17:41:46.233Z,10.30
2019-02-26T17:44:15.170Z,10.20
2019-02-26T17:46:44.045Z,10.10
2019-02-26T17:49:12.856Z,10.00
2019-02-26T17:51:41.701Z,9.80
2019-02-26T17:54:10.615Z,9.70
2019-02-26T17:56:40.049Z,9.60
2019-02-26T17:59:09.017Z,9.40
2019-02-26T18:01:37.837Z,9.30
2019-02-26T18:04:07.222Z,9.20
2019-02-26T18:06:36.568Z,9.10
2019-02-26T18:09:06.068Z,9.00
2019-02-26T18:11:36.537Z,8.80
2019-02-26T18:14:05.552Z,8.70
2019-02-26T18:16:34.740Z,8.60
2019-02-26T18:19:03.845Z,8.60
2019-02-26T18:21:32.641Z,8.50
2019-02-26T18:24:01.949Z,8.50
2019-02-26T18:26:30.879Z,8.40
2019-02-26T18:28:59.650Z,8.30
2019-02-26T18:31:31.018Z,8.20
2019-02-26T18:33:59.456Z,8.00
2019-02-26T18:36:28.254Z,7.90
2019-02-26T18:38:57.113Z,7.80
2019-02-26T18:41:25.961Z,7.80
2019-02-26T18:43:54.484Z,7.70
2019-02-26T18:46:23.978Z,7.60
2019-02-26T18:48:52.774Z,7.60
2019-02-26T18:51:21.586Z,7.50
2019-02-26T18:53:50.623Z,7.40
2019-02-26T18:56:19.577Z,7.30
2019-02-26T18:58:49.089Z,7.30
2019-02-26T19:01:19.092Z,7.30
2019-02-26T19:03:47.893Z,7.30
2019-02-26T19:06:16.752Z,7.10
2019-02-26T19:08:45.537Z,7.10
2019-02-26T19:11:16.778Z,7.00
2019-02-26T19:13:45.140Z,6.80
2019-02-26T19:16:14.108Z,6.70
2019-02-26T19:18:42.946Z,6.50
2019-02-26T19:21:11.745Z,6.40
2019-02-26T19:23:40.541Z,6.40
2019-02-26T19:26:13.522Z,6.30
2019-02-26T19:28:40.320Z,6.30
2019-02-26T19:31:09.747Z,6.20
2019-02-26T19:33:39.229Z,6.20
2019-02-26T19:36:08.060Z,6.10
2019-02-26T19:38:37.433Z,6.00
2019-02-26T19:41:12.351Z,5.90
2019-02-26T19:43:40.176Z,5.80
2019-02-26T19:46:09.235Z,5.70
2019-02-26T19:48:38.312Z,5.70
2019-02-26T19:51:07.184Z,5.60
2019-02-26T19:53:36.021Z,5.60
2019-02-26T19:56:04.986Z,5.60
2019-02-26T19:58:33.790Z,5.60
2019-02-26T20:01:03.004Z,5.60
2019-02-26T20:03:39.606Z,5.50
2019-02-26T20:06:02.632Z,5.60
2019-02-26T20:08:31.450Z,5.60
2019-02-26T20:11:00.309Z,5.50
2019-02-26T20:13:29.190Z,5.60
2019-02-26T20:15:58.002Z,5.50
2019-02-26T20:18:26.960Z,5.50
2019-02-26T20:20:55.782Z,5.40
2019-02-26T20:23:24.629Z,5.20
2019-02-26T20:25:53.655Z,5.10
2019-02-26T20:28:22.580Z,4.90
2019-02-26T20:30:51.744Z,4.70
2019-02-26T20:33:20.733Z,4.60
2019-02-26T20:35:49.762Z,4.40
2019-02-26T20:38:18.662Z,4.20
2019-02-26T20:40:48.932Z,4.00
2019-02-26T20:43:18.559Z,3.90
2019-02-26T20:45:48.634Z,3.70
2019-02-26T20:48:18.040Z,3.60
2019-02-26T20:50:46.873Z,3.50
2019-02-26T20:53:15.781Z,3.50
2019-02-26T20:55:52.288Z,3.40
2019-02-26T20:58:15.877Z,3.40
2019-02-26T21:00:44.910Z,3.30
2019-02-26T21:03:13.789Z,3.20
2019-02-26T21:05:44.777Z,3.20
2019-02-26T21:08:14.533Z,3.30
2019-02-26T21:10:45.911Z,3.30
2019-02-26T21:13:14.297Z,3.30
2019-02-26T21:15:44.783Z,3.30
2019-02-26T21:18:14.138Z,3.30
2019-02-26T21:20:43.060Z,3.20
2019-02-26T21:23:11.972Z,3.20
2019-02-26T21:25:43.888Z,3.10
2019-02-26T21:28:11.634Z,3.00
2019-02-26T21:30:40.796Z,3.00
2019-02-26T21:33:09.661Z,2.90
2019-02-26T21:35:38.525Z,2.90
2019-02-26T21:38:07.470Z,2.80
2019-02-26T21:40:37.337Z,2.70
2019-02-26T21:43:06.197Z,2.70
2019-02-26T21:45:35.064Z,2.60
2019-02-26T21:48:03.857Z,2.50
2019-02-26T21:50:32.635Z,2.40
2019-02-26T21:53:01.496Z,2.30
2019-02-26T21:55:32.666Z,2.20
2019-02-26T21:58:01.221Z,2.10
2019-02-26T22:00:30.326Z,2.10
2019-02-26T22:02:59.114Z,2.00
2019-02-26T22:05:27.945Z,2.00
2019-02-26T22:07:56.722Z,2.00
2019-02-26T22:10:25.600Z,2.00
2019-02-26T22:12:56.616Z,1.90
2019-02-26T22:15:25.090Z,1.80
2019-02-26T22:17:55.703Z,1.80
2019-02-26T22:20:35.786Z,1.70
2019-02-26T22:22:57.908Z,1.70
2019-02-26T22:25:25.874Z,1.70
2019-02-26T22:27:55.000Z,1.60
2019-02-26T22:30:23.889Z,1.60
2019-02-26T22:32:52.997Z,1.50
2019-02-26T22:35:25.568Z,1.60
2019-02-26T22:37:52.364Z,1.50
2019-02-26T22:40:22.747Z,1.50
2019-02-26T22:42:51.972Z,1.50
2019-02-26T22:45:22.276Z,1.40
2019-02-26T22:47:51.107Z,1.30
2019-02-26T22:50:19.983Z,1.30
2019-02-26T22:52:48.773Z,1.20
2019-02-26T22:55:17.728Z,1.20
2019-02-26T22:57:47.148Z,1.20
2019-02-26T23:00:59.221Z,1.20
2019-02-26T23:03:28.168Z,1.20
2019-02-26T23:05:59.016Z,1.20
2019-02-26T23:08:27.617Z,1.20
2019-02-26T23:10:57.473Z,1.20
2019-02-26T23:13:31.454Z,1.20
2019-02-26T23:15:58.373Z,1.20
2019-02-26T23:18:28.511Z,1.20
2019-02-26T23:20:58.455Z,1.10
2019-02-26T23:23:27.519Z,1.10
2019-02-26T23:25:56.293Z,1.10
2019-02-26T23:28:25.402Z,1.00
2019-02-26T23:30:54.323Z,1.00
2019-02-26T23:33:23.170Z,0.90
2019-02-26T23:35:54.868Z,0.80
2019-02-26T23:38:22.814Z,0.70
2019-02-26T23:40:51.957Z,0.70
2019-02-26T23:43:21.413Z,0.60
2019-02-26T23:45:50.616Z,0.60
2019-02-26T23:48:19.500Z,0.50
2019-02-26T23:50:48.361Z,0.50
2019-02-26T23:53:17.128Z,0.50
2019-02-26T23:55:47.284Z,0.50
2019-02-26T23:58:17.059Z,0.50
